createdAt,value
2018-04-17T08:11:10.896Z,68.25
2018-04-17T08:16:03.914Z,86.35
2018-04-17T08:20:59.249Z,76.78
2018-04-17T08:30:43.592Z,127.18
2018-04-17T08:33:11.431Z,104.87
2018-04-17T08:35:39.268Z,102.70
2018-04-17T08:44:28.020Z,147.48
2018-04-17T08:50:15.962Z,136.77
2018-04-17T08:52:44.862Z,127.85
2018-04-17T08:56:25.694Z,120.13
2018-04-17T08:58:54.314Z,101.57
2018-04-17T09:01:23.149Z,117.67
2018-04-17T09:05:26.548Z,122.70
2018-04-17T09:07:54.731Z,100.65
2018-04-17T09:11:00.380Z,103.78
2018-04-17T09:13:27.840Z,98.20
2018-04-17T09:23:48.632Z,88.95
2018-04-17T09:26:17.342Z,93.43
2018-04-17T09:30:26.913Z,95.55
2018-04-17T09:32:55.646Z,73.40
2018-04-17T09:35:25.045Z,66.40
2018-04-17T09:37:54.849Z,69.43
2018-04-17T09:40:23.637Z,69.82
2018-04-17T09:42:52.505Z,69.15
2018-04-17T09:45:21.398Z,64.78
2018-04-17T10:08:21.114Z,48.50
2018-04-17T10:31:50.149Z,32.95
2018-04-17T10:34:18.491Z,34.20
2018-04-17T10:36:47.122Z,42.88
2018-04-17T10:39:15.197Z,35.85
2018-04-17T10:41:43.330Z,30.83
2018-04-17T10:44:11.453Z,32.53
2018-04-17T10:46:39.804Z,28.60
2018-04-17T10:49:07.868Z,28.38
2018-04-17T10:51:35.969Z,32.20
2018-04-17T10:54:04.770Z,31.80
2018-04-17T10:56:34.677Z,31.33
2018-04-17T10:59:03.470Z,32.70
2018-04-17T11:01:32.785Z,24.73
2018-04-17T11:04:01.785Z,21.10
2018-04-17T11:06:31.856Z,19.35
2018-04-17T11:08:59.927Z,18.20
2018-04-17T11:11:28.651Z,18.20
2018-04-17T11:13:57.748Z,19.65
2018-04-17T11:16:26.746Z,17.98
2018-04-17T11:18:54.807Z,16.70
2018-04-17T11:21:22.924Z,17.45
2018-04-17T11:23:53.452Z,16.62
2018-04-17T11:26:23.125Z,19.12
2018-04-17T11:28:51.628Z,14.48
2018-04-17T11:31:20.532Z,13.90
2018-04-17T11:33:49.998Z,16.45
2018-04-17T11:36:18.926Z,14.48
2018-04-17T11:38:48.067Z,16.33
2018-04-17T11:41:16.715Z,15.02
2018-04-17T11:43:46.714Z,14.43
2018-04-17T11:46:14.805Z,19.45
2018-04-17T11:48:42.880Z,13.70
2018-04-17T11:51:11.533Z,13.43
2018-04-17T11:53:39.688Z,14.52
2018-04-17T11:56:08.697Z,14.73
2018-04-17T11:58:38.537Z,13.82
2018-04-17T12:01:08.901Z,13.45
2018-04-17T12:03:37.940Z,13.00
2018-04-17T12:06:06.641Z,11.68
2018-04-17T12:08:35.238Z,8.95
2018-04-17T12:11:04.757Z,10.18
2018-04-17T12:13:33.714Z,7.47
2018-04-17T12:16:02.437Z,6.10
2018-04-17T12:18:31.205Z,7.20
2018-04-17T12:20:59.293Z,5.93
2018-04-17T12:23:27.956Z,8.27
2018-04-17T12:25:56.793Z,12.20
2018-04-17T12:28:25.644Z,6.12
2018-04-17T12:30:53.720Z,5.72
2018-04-17T12:33:21.871Z,7.75
2018-04-17T12:35:50.827Z,4.87
2018-04-17T12:38:19.818Z,9.85
2018-04-17T12:40:48.775Z,7.10
2018-04-17T12:43:16.869Z,8.65
2018-04-17T12:45:44.922Z,4.43
2018-04-17T13:56:30.774Z,2.33
2018-04-17T13:58:59.630Z,2.67
2018-04-17T14:01:28.477Z,2.17
2018-04-17T14:03:56.686Z,3.33
2018-04-17T14:06:24.797Z,2.33
2018-04-17T14:08:52.836Z,2.30
2018-04-17T14:11:20.897Z,1.95
2018-04-17T14:13:48.985Z,3.00
2018-04-17T14:16:19.047Z,3.05
2018-04-17T14:18:48.498Z,2.78
2018-04-17T14:21:16.649Z,3.62
2018-04-17T14:23:46.225Z,1.90
2018-04-17T14:26:15.085Z,2.20
2018-04-17T14:28:43.200Z,2.40
2018-04-17T14:31:12.398Z,3.83
2018-04-17T14:33:41.656Z,4.07
2018-04-17T14:36:09.733Z,2.90
2018-04-17T14:38:37.832Z,3.12
2018-04-17T14:41:07.431Z,1.85
2018-04-17T14:43:35.519Z,3.90
2018-04-17T14:46:05.177Z,3.78
2018-04-17T14:48:33.284Z,2.30
2018-04-17T14:51:01.726Z,1.90
2018-04-17T14:53:29.784Z,4.37
2018-04-17T14:55:57.853Z,3.10
2018-04-17T14:58:26.252Z,5.43
2018-04-17T15:00:54.317Z,4.60
2018-04-17T15:03:22.420Z,3.15
2018-04-17T15:05:50.489Z,3.10
2018-04-17T15:08:18.561Z,3.12
2018-04-17T15:10:46.649Z,1.85
2018-04-17T15:13:15.800Z,4.35
2018-04-17T15:15:43.885Z,3.20
2018-04-17T15:18:11.940Z,2.53
2018-04-17T15:20:40.015Z,2.03
2018-04-17T15:23:08.124Z,2.65
2018-04-17T15:25:36.156Z,2.83
2018-04-17T15:28:04.565Z,3.42
2018-04-17T15:30:32.649Z,3.42
2018-04-17T15:33:00.728Z,3.72
2018-04-17T15:35:30.197Z,2.62
2018-04-17T15:37:58.299Z,3.25
2018-04-17T15:40:26.370Z,3.42
2018-04-17T15:42:54.413Z,3.03
2018-04-17T15:45:22.513Z,3.85
2018-04-17T15:47:51.273Z,3.83
2018-04-17T15:50:19.934Z,4.68
2018-04-17T15:52:48.002Z,3.10
2018-04-17T15:55:16.737Z,4.25
2018-04-17T15:57:44.812Z,3.92
2018-04-17T16:00:12.889Z,5.05
2018-04-17T16:02:41.213Z,3.85
2018-04-17T16:05:09.280Z,5.53
2018-04-17T16:07:38.496Z,2.67
2018-04-17T16:10:06.613Z,4.35
2018-04-17T16:12:36.276Z,4.05
2018-04-17T16:15:05.473Z,2.72
2018-04-17T16:17:34.246Z,2.85
2018-04-17T16:20:02.337Z,3.15
2018-04-17T16:22:30.825Z,1.98
2018-04-17T16:24:58.935Z,4.43
2018-04-17T16:27:27.785Z,3.25
2018-04-17T16:29:56.109Z,4.00
2018-04-17T16:32:24.952Z,4.32
2018-04-17T16:34:53.764Z,4.55
2018-04-17T16:37:21.815Z,2.87
2018-04-17T16:39:50.633Z,3.75
2018-04-17T16:42:18.673Z,2.83
2018-04-17T16:44:46.762Z,5.00
2018-04-17T16:47:15.137Z,4.22
2018-04-17T16:49:43.210Z,5.65
2018-04-17T16:52:11.313Z,5.68
2018-04-17T16:54:40.173Z,5.57
2018-04-17T16:57:08.862Z,3.08
2018-04-17T16:59:36.933Z,5.03
2018-04-17T17:02:05.002Z,2.37
2018-04-17T17:04:33.384Z,3.10
2018-04-17T17:07:01.454Z,3.30
2018-04-17T17:09:29.525Z,3.42
2018-04-17T17:11:57.886Z,2.78
2018-04-17T17:14:25.977Z,5.72
2018-04-17T17:16:54.058Z,4.75
2018-04-17T17:19:22.109Z,3.10
2018-04-17T17:21:50.376Z,4.40
2018-04-17T17:24:19.298Z,4.10
2018-04-17T17:26:48.796Z,3.47
2018-04-17T17:29:17.665Z,3.17
2018-04-17T17:31:45.751Z,3.97
2018-04-17T17:34:14.045Z,4.15
2018-04-17T17:36:43.529Z,3.42
2018-04-17T17:39:11.597Z,4.85
2018-04-17T17:41:39.689Z,2.50
2018-04-17T17:44:08.078Z,3.65
2018-04-17T17:46:36.145Z,3.35
2018-04-17T17:49:05.009Z,3.72
2018-04-17T17:51:33.079Z,2.80
2018-04-17T17:54:01.940Z,4.20
2018-04-17T17:56:29.981Z,3.53
2018-04-17T17:58:58.441Z,4.90
2018-04-17T18:01:27.309Z,3.47
2018-04-17T18:03:56.920Z,5.18
2018-04-17T18:06:24.928Z,5.18
2018-04-17T18:08:53.374Z,3.60
2018-04-17T18:11:21.446Z,5.03
2018-04-17T18:13:49.529Z,3.35
2018-04-17T18:16:17.586Z,3.25
2018-04-17T18:18:45.663Z,5.30
2018-04-17T18:21:13.746Z,4.00
2018-04-17T18:23:42.081Z,3.45
2018-04-17T18:26:10.342Z,4.25
2018-04-17T18:28:38.421Z,3.62
2018-04-17T18:31:06.509Z,5.70
2018-04-17T18:33:34.613Z,4.30
2018-04-17T18:36:02.661Z,4.72
2018-04-17T18:38:30.761Z,3.75
2018-04-17T18:40:59.592Z,4.32
2018-04-17T18:43:27.700Z,4.68
2018-04-17T18:45:56.080Z,3.72
2018-04-17T18:48:24.189Z,4.95
2018-04-17T18:50:52.393Z,5.03
2018-04-17T18:53:20.568Z,4.28
2018-04-17T18:55:48.632Z,5.40
2018-04-17T18:58:17.353Z,5.68
2018-04-17T19:00:46.412Z,4.82
2018-04-17T19:03:14.443Z,4.30
2018-04-17T19:05:43.307Z,3.28
2018-04-17T19:08:11.385Z,4.45
2018-04-17T19:10:39.458Z,6.07
2018-04-17T19:13:07.541Z,6.60
2018-04-17T19:15:35.892Z,5.80
2018-04-17T19:18:03.962Z,4.78
2018-04-17T19:20:32.048Z,4.15
2018-04-17T19:23:00.373Z,3.50
2018-04-17T19:25:28.485Z,5.30
2018-04-17T19:27:56.586Z,6.00
2018-04-17T19:30:24.925Z,3.87
2018-04-17T19:32:53.005Z,5.28
2018-04-17T19:35:21.096Z,5.37
2018-04-17T19:37:49.502Z,6.15
2018-04-17T19:40:18.396Z,5.18
2018-04-17T19:42:46.457Z,4.22
2018-04-17T19:45:15.289Z,3.23
2018-04-17T19:47:43.376Z,6.40
2018-04-17T19:50:11.473Z,3.57
2018-04-17T19:52:39.818Z,4.13
2018-04-17T19:55:07.913Z,4.35
2018-04-17T19:57:35.989Z,4.60
2018-04-17T20:00:04.082Z,3.13
2018-04-17T20:02:33.010Z,4.90
2018-04-17T20:05:01.081Z,4.32
2018-04-17T20:07:29.606Z,2.90
2018-04-17T20:09:57.689Z,5.22
2018-04-17T20:12:25.729Z,3.57
2018-04-17T20:14:54.056Z,4.20
2018-04-17T20:17:22.904Z,4.90
2018-04-17T20:19:50.989Z,4.70
2018-04-17T20:22:19.380Z,8.93
2018-04-17T20:24:47.459Z,4.83
2018-04-17T20:27:16.288Z,3.40
2018-04-17T20:29:44.414Z,5.47
2018-04-17T20:32:12.452Z,5.40
2018-04-17T20:34:41.321Z,7.60
2018-04-17T20:37:09.421Z,3.83
2018-04-17T20:39:37.617Z,5.87
2018-04-17T20:42:06.485Z,4.67
2018-04-17T20:44:34.873Z,4.50
2018-04-17T20:47:02.944Z,6.30
2018-04-17T20:49:31.021Z,6.87
2018-04-17T20:51:59.396Z,7.03
2018-04-17T20:54:27.444Z,6.70
2018-04-17T20:56:55.545Z,3.73
2018-04-17T20:59:24.020Z,5.50
2018-04-17T21:01:52.065Z,4.50
2018-04-17T21:04:20.137Z,7.20
2018-04-17T21:06:48.236Z,4.70
2018-04-17T21:09:16.309Z,5.73
2018-04-17T21:11:44.397Z,6.40
2018-04-17T21:14:12.778Z,9.63
2018-04-17T21:16:41.633Z,4.60
2018-04-17T21:19:09.736Z,7.20
2018-04-17T21:21:38.085Z,8.07
2018-04-17T21:24:06.181Z,4.70
2018-04-17T21:26:34.224Z,5.73
2018-04-17T21:29:02.797Z,6.27
2018-04-17T21:31:30.876Z,4.93
2018-04-17T21:33:58.936Z,3.67
2018-04-17T21:36:27.345Z,6.57
2018-04-17T21:38:56.117Z,7.53
2018-04-17T21:41:24.251Z,4.37
2018-04-17T21:43:52.561Z,8.47
2018-04-17T21:46:20.653Z,4.17
2018-04-17T21:48:48.741Z,6.73
2018-04-17T21:51:17.224Z,7.70
2018-04-17T21:53:45.360Z,6.73
2018-04-17T21:56:14.374Z,7.37
2018-04-17T21:58:42.445Z,4.97
2018-04-17T22:01:10.513Z,6.73
2018-04-17T22:03:38.884Z,5.87
2018-04-17T22:06:06.981Z,8.90
2018-04-17T22:08:35.060Z,3.57
2018-04-17T22:11:04.249Z,8.13
2018-04-17T22:13:32.331Z,5.17
2018-04-17T22:16:01.179Z,6.50
2018-04-17T22:18:29.280Z,7.73
2018-04-17T22:20:57.344Z,6.10
2018-04-17T22:23:25.454Z,5.20
2018-04-17T22:25:53.905Z,6.03
2018-04-17T22:28:21.977Z,6.00
2018-04-17T22:30:50.020Z,6.30
2018-04-17T22:33:18.837Z,5.53
2018-04-17T22:35:46.911Z,5.80
2018-04-17T22:38:14.981Z,7.60
2018-04-17T22:40:43.045Z,7.23
2018-04-17T22:43:11.121Z,5.37
2018-04-17T22:45:39.189Z,6.33
2018-04-17T22:48:07.389Z,6.93
2018-04-17T22:50:35.428Z,8.30
2018-04-17T22:53:03.476Z,6.37
2018-04-17T22:55:32.277Z,5.03
2018-04-17T22:58:00.357Z,9.63
2018-04-17T23:00:28.429Z,8.43
2018-04-17T23:02:56.495Z,6.70
2018-04-17T23:05:24.541Z,7.03
2018-04-17T23:07:52.629Z,4.10
2018-04-17T23:10:21.025Z,8.77
2018-04-17T23:12:50.708Z,5.23
2018-04-17T23:15:18.772Z,4.87
2018-04-17T23:17:47.186Z,5.53
2018-04-17T23:20:15.259Z,6.80
2018-04-17T23:22:43.330Z,4.93
2018-04-17T23:25:11.673Z,9.60
2018-04-17T23:27:39.757Z,8.50
2018-04-17T23:30:07.856Z,6.27
2018-04-17T23:32:35.896Z,8.63
2018-04-17T23:35:04.124Z,5.53
2018-04-17T23:37:32.228Z,8.93
2018-04-17T23:40:00.337Z,6.10
2018-04-17T23:42:28.405Z,5.93
2018-04-17T23:44:56.477Z,6.10
2018-04-17T23:47:25.020Z,6.00
2018-04-17T23:49:53.089Z,4.57
2018-04-17T23:52:21.165Z,5.57
2018-04-17T23:54:49.554Z,5.50
2018-04-17T23:57:17.641Z,5.30
2018-04-17T23:59:45.728Z,5.90
